MMTM/TAM METAR and TAF weather

Enter ICAO airport designator
Station Type Date Time Source
MMTM METAR 2021/05/15 22:41 UTC NOAA

MMTM 152241Z 08008KT 10SM SKC 28/23 A2988 RMK CI CU


Station Type Date Time Source
MMTM Decoded METAR 2021/05/15 22:41 UTC NOAA

Tampico / Gen Fj Mina, Mexico (MMTM) 22-17N 097-52W
May 15, 2021 - 06:41 PM EDT / 2021.05.15 2241 UTC
Wind: from the E (080 degrees) at 9 MPH (8 KT):0
Visibility: 10 mile(s):0
Sky conditions: clear
Temperature: 82 F (28 C)
Dew Point: 73 F (23 C)
Relative Humidity: 74%
Pressure (altimeter): 29.88 in. Hg (1011 hPa)
ob: MMTM 152241Z 08008KT 10SM SKC 28/23 A2988 RMK CI CU
cycle: 22

Station Type Date Time Source
MMTM TAF 2021/05/15 22:19 UTC NOAA

TAF
AMD MMTM 152212Z 1522/1618 08008KT P6SM SCT015 SCT250
TEMPO 1523/1603 6SM VC RA SCT015CB BKN080 BKN250
FM160700 16006KT 5SM HZ SCT010 SCT040
TEMPO 1610/1614 2SM BR HZ BKN010
FM161400 13014KT 5SM HZ BKN015

Example: see airport list